Terminal Aerodrome Forecast
Issued by NWS Paducah, KY

Home | Current Version | Previous Version | Text Only | Print | Product List | Glossary On
Versions: 1 2 3 4 5 6 7 8 9 10 11 12 13 14 15 16 17
000
FTUS43 KPAH 262034 AAB
TAFPAH
TAF AMD
KPAH 262034Z 2621/2718 10006KT 6SM -TSRA OVC090CB
      TEMPO 2621/2624 3SM TSRA BR OVC022CB
     FM270000 15006KT P6SM BKN080
     FM271300 18009KT 4SM TSRA OVC025CB=

USA.gov is the U.S. government's official web portal to all federal, state and local government web resources and services.